createdAt,value
2018-10-03T00:01:05.999Z,57.60
2018-10-03T00:03:33.585Z,57.60
2018-10-03T00:06:01.177Z,57.60
2018-10-03T00:08:29.013Z,57.50
2018-10-03T00:10:56.611Z,57.80
2018-10-03T00:13:24.171Z,57.70
2018-10-03T00:15:52.034Z,57.70
2018-10-03T00:18:19.577Z,57.70
2018-10-03T00:20:47.123Z,57.70
2018-10-03T00:23:15.149Z,57.70
2018-10-03T00:25:42.661Z,57.70
2018-10-03T00:28:10.300Z,57.70
2018-10-03T00:30:37.818Z,57.70
2018-10-03T00:33:05.395Z,57.60
2018-10-03T00:35:33.231Z,57.60
2018-10-03T00:38:00.842Z,57.60
2018-10-03T00:40:29.630Z,57.60
2018-10-03T00:42:57.689Z,57.70
2018-10-03T00:45:25.265Z,57.90
2018-10-03T00:47:52.924Z,57.90
2018-10-03T00:50:20.540Z,57.90
2018-10-03T00:52:48.254Z,57.90
2018-10-03T00:55:15.802Z,58.00
2018-10-03T00:57:43.332Z,57.90
2018-10-03T01:00:11.247Z,58.00
2018-10-03T01:02:38.870Z,58.00
2018-10-03T01:05:06.480Z,58.00
2018-10-03T01:07:34.250Z,58.00
2018-10-03T01:10:01.938Z,58.00
2018-10-03T01:12:29.497Z,58.00
2018-10-03T01:14:57.463Z,58.00
2018-10-03T01:17:24.975Z,58.10
2018-10-03T01:19:52.587Z,58.10
2018-10-03T01:22:20.172Z,58.20
2018-10-03T01:24:47.780Z,58.20
2018-10-03T01:27:15.277Z,58.10
2018-10-03T01:29:42.826Z,58.80
2018-10-03T01:32:10.602Z,58.10
2018-10-03T01:34:38.210Z,58.10
2018-10-03T01:37:05.892Z,58.00
2018-10-03T01:39:33.614Z,57.90
2018-10-03T01:42:01.319Z,57.80
2018-10-03T01:44:28.885Z,57.70
2018-10-03T01:46:56.741Z,57.60
2018-10-03T01:49:24.261Z,57.50
2018-10-03T01:51:51.843Z,57.40
2018-10-03T01:54:19.837Z,57.30
2018-10-03T01:56:47.369Z,57.20
2018-10-03T01:59:15.005Z,57.10
2018-10-03T02:01:42.733Z,57.10
2018-10-03T02:04:10.493Z,57.00
2018-10-03T02:06:38.066Z,56.90
2018-10-03T02:09:10.228Z,56.90
2018-10-03T02:11:38.118Z,56.80
2018-10-03T02:14:07.985Z,56.70
2018-10-03T02:16:35.778Z,56.60
2018-10-03T02:19:08.284Z,56.40
2018-10-03T02:21:36.044Z,56.30
2018-10-03T02:24:08.454Z,56.20
2018-10-03T02:26:35.978Z,55.90
2018-10-03T02:29:09.833Z,55.80
2018-10-03T02:31:37.368Z,55.50
2018-10-03T02:34:07.779Z,55.40
2018-10-03T02:36:36.369Z,55.20
2018-10-03T02:39:09.511Z,55.10
2018-10-03T02:41:37.326Z,54.80
2018-10-03T02:44:08.158Z,54.70
2018-10-03T02:46:35.954Z,54.60
2018-10-03T02:49:07.824Z,54.50
2018-10-03T02:51:35.401Z,54.40
2018-10-03T02:54:02.962Z,54.30
2018-10-03T02:56:30.665Z,54.30
2018-10-03T02:58:58.256Z,54.20
2018-10-03T03:01:26.046Z,54.10
2018-10-03T03:03:53.582Z,54.00
2018-10-03T03:06:21.089Z,54.00
2018-10-03T03:08:49.301Z,53.90
2018-10-03T03:11:16.793Z,53.80
2018-10-03T03:13:44.389Z,53.80
2018-10-03T03:16:12.566Z,53.80
2018-10-03T03:18:40.107Z,53.70
2018-10-03T03:21:07.620Z,53.70
2018-10-03T03:23:35.342Z,53.70
2018-10-03T03:26:02.886Z,53.70
2018-10-03T03:28:30.906Z,53.70
2018-10-03T03:30:58.427Z,53.70
2018-10-03T03:33:26.079Z,53.70
2018-10-03T03:35:53.687Z,53.70
2018-10-03T03:38:21.245Z,54.30
2018-10-03T03:40:48.814Z,53.70
2018-10-03T03:43:16.902Z,53.70
2018-10-03T03:45:45.018Z,53.70
2018-10-03T03:48:12.886Z,53.80
2018-10-03T03:50:40.713Z,53.80
2018-10-03T03:53:08.210Z,53.80
2018-10-03T03:55:35.709Z,53.90
2018-10-03T03:58:03.503Z,53.90
2018-10-03T04:00:31.084Z,53.90
2018-10-03T04:02:58.651Z,53.90
2018-10-03T04:05:26.170Z,53.80
2018-10-03T04:07:53.830Z,53.80
2018-10-03T04:10:21.538Z,53.90
2018-10-03T04:12:49.160Z,53.90
2018-10-03T04:15:16.727Z,53.90
2018-10-03T04:17:44.450Z,53.90
2018-10-03T04:20:12.042Z,53.80
2018-10-03T04:22:39.733Z,53.80
2018-10-03T04:25:07.652Z,53.80
2018-10-03T04:27:35.242Z,53.90
2018-10-03T04:30:02.938Z,53.90
2018-10-03T04:32:31.058Z,54.00
2018-10-03T04:34:58.595Z,54.00
2018-10-03T04:37:26.401Z,54.10
2018-10-03T04:39:54.370Z,54.10
2018-10-03T04:42:22.070Z,54.20
2018-10-03T04:44:49.606Z,54.20
2018-10-03T04:47:18.449Z,54.20
2018-10-03T04:49:45.965Z,54.20
2018-10-03T04:52:13.542Z,54.20
2018-10-03T04:54:41.335Z,54.20
2018-10-03T04:57:08.827Z,54.30
2018-10-03T04:59:36.403Z,54.30
2018-10-03T05:02:04.204Z,54.30
2018-10-03T05:04:31.736Z,54.40
2018-10-03T05:06:59.372Z,54.30
2018-10-03T05:09:27.097Z,54.40
2018-10-03T05:11:54.927Z,54.40
2018-10-03T05:14:22.454Z,54.30
2018-10-03T05:16:50.326Z,54.30
2018-10-03T05:19:17.942Z,54.10
2018-10-03T05:21:45.756Z,54.00
2018-10-03T05:24:13.294Z,54.00
2018-10-03T05:26:40.823Z,54.50
2018-10-03T05:29:15.504Z,53.70
2018-10-03T05:31:43.168Z,53.50
2018-10-03T05:34:10.886Z,53.40
2018-10-03T05:36:38.807Z,53.30
2018-10-03T05:39:09.173Z,53.20
2018-10-03T05:41:36.999Z,53.00
2018-10-03T05:44:04.882Z,52.90
2018-10-03T05:46:32.430Z,52.70
2018-10-03T05:48:59.984Z,52.50
2018-10-03T05:51:27.798Z,52.20
2018-10-03T05:53:55.306Z,52.20
2018-10-03T05:56:22.838Z,52.30
2018-10-03T05:58:50.898Z,52.20
2018-10-03T06:01:18.470Z,52.00
2018-10-03T06:03:46.045Z,51.90
2018-10-03T06:06:13.873Z,52.00
2018-10-03T06:08:41.487Z,51.80
2018-10-03T06:11:08.992Z,51.70
2018-10-03T06:13:36.889Z,51.60
2018-10-03T06:16:04.561Z,51.50
2018-10-03T06:18:32.577Z,51.20
2018-10-03T06:21:00.608Z,51.00
2018-10-03T06:23:28.549Z,51.00
2018-10-03T06:25:56.321Z,51.00
2018-10-03T06:28:23.948Z,50.90
2018-10-03T06:30:51.530Z,50.90
2018-10-03T06:33:19.381Z,50.70
2018-10-03T06:35:46.924Z,50.60
2018-10-03T06:38:14.517Z,50.30
2018-10-03T06:40:42.414Z,50.20
2018-10-03T06:43:10.071Z,50.30
2018-10-03T06:45:37.913Z,50.70
2018-10-03T06:48:05.486Z,50.10
2018-10-03T06:50:33.062Z,50.20
2018-10-03T06:53:00.918Z,50.20
2018-10-03T06:55:28.456Z,50.30
2018-10-03T06:57:56.065Z,50.10
2018-10-03T07:00:23.746Z,50.20
2018-10-03T07:02:51.266Z,50.20
2018-10-03T07:05:18.877Z,50.20
2018-10-03T07:07:46.702Z,50.40
2018-10-03T07:10:14.289Z,50.50
2018-10-03T07:12:41.885Z,50.80
2018-10-03T07:15:09.714Z,50.80
2018-10-03T07:17:37.297Z,50.70
2018-10-03T07:20:04.989Z,50.60
2018-10-03T07:22:32.799Z,50.60
2018-10-03T07:25:00.322Z,50.90
2018-10-03T07:27:27.924Z,51.20
2018-10-03T07:29:55.714Z,52.40
2018-10-03T07:32:23.268Z,52.10
2018-10-03T07:34:50.888Z,52.10
2018-10-03T07:37:18.641Z,52.30
2018-10-03T07:39:46.403Z,53.00
2018-10-03T07:42:14.250Z,53.70
2018-10-03T07:44:41.783Z,54.10
2018-10-03T07:47:09.323Z,54.30
2018-10-03T07:49:36.885Z,55.90
2018-10-03T07:52:04.419Z,55.80
2018-10-03T07:54:32.273Z,56.00
2018-10-03T07:56:59.838Z,55.70
2018-10-03T07:59:27.400Z,55.50
2018-10-03T08:01:55.160Z,55.30
2018-10-03T08:04:22.734Z,54.80
2018-10-03T08:06:50.404Z,54.20
2018-10-03T08:09:18.170Z,53.70
2018-10-03T08:11:45.686Z,53.30
2018-10-03T08:14:13.230Z,52.90
2018-10-03T08:16:41.288Z,53.10
2018-10-03T08:19:08.847Z,52.60
2018-10-03T08:21:36.648Z,52.70
2018-10-03T08:24:04.686Z,52.10
2018-10-03T08:26:32.522Z,51.70
2018-10-03T08:29:00.050Z,50.90
2018-10-03T08:31:28.358Z,50.50
2018-10-03T08:33:56.130Z,50.00
2018-10-03T08:36:25.509Z,49.70
2018-10-03T08:38:53.430Z,49.60
2018-10-03T08:41:22.124Z,49.70
2018-10-03T08:43:49.884Z,49.50
2018-10-03T08:46:18.491Z,49.30
2018-10-03T08:48:47.114Z,49.40
2018-10-03T08:51:14.829Z,49.50
2018-10-03T08:53:42.815Z,49.10
2018-10-03T08:56:10.515Z,49.20
2018-10-03T08:58:38.169Z,49.70
2018-10-03T09:01:07.162Z,50.10
2018-10-03T09:03:34.679Z,49.90
2018-10-03T09:06:02.244Z,49.40
2018-10-03T09:08:29.999Z,49.20
2018-10-03T09:10:57.554Z,49.50
2018-10-03T09:13:25.458Z,49.90
2018-10-03T09:15:53.865Z,49.70
2018-10-03T09:18:21.704Z,50.40
2018-10-03T09:20:49.289Z,48.70
2018-10-03T09:23:16.907Z,47.50
2018-10-03T09:25:44.509Z,46.60
2018-10-03T09:28:12.234Z,45.60
2018-10-03T09:30:40.226Z,45.00
2018-10-03T09:33:08.104Z,44.70
2018-10-03T09:35:35.999Z,45.00
2018-10-03T09:38:03.699Z,45.50
2018-10-03T09:40:31.284Z,45.80
2018-10-03T09:42:59.066Z,45.50
2018-10-03T09:45:26.921Z,45.20
2018-10-03T09:47:54.662Z,44.20
2018-10-03T09:50:22.187Z,43.30
2018-10-03T09:52:50.470Z,42.90
2018-10-03T09:55:18.092Z,42.90
2018-10-03T09:57:45.973Z,42.70
2018-10-03T10:00:18.122Z,42.20
2018-10-03T10:02:46.026Z,42.00
2018-10-03T10:05:13.578Z,41.90
2018-10-03T10:07:41.185Z,41.40
2018-10-03T10:10:09.136Z,41.30
2018-10-03T10:12:36.646Z,41.40
2018-10-03T10:15:04.827Z,41.60
2018-10-03T10:17:32.662Z,41.60
2018-10-03T10:20:00.273Z,41.60
2018-10-03T10:22:27.826Z,42.20
2018-10-03T10:24:55.652Z,42.60
2018-10-03T10:27:23.315Z,43.20
2018-10-03T10:29:50.814Z,42.60
2018-10-03T10:32:18.803Z,42.90
2018-10-03T10:34:46.738Z,47.90
2018-10-03T10:37:14.279Z,43.20
2018-10-03T10:39:42.043Z,58.80
2018-10-03T10:42:09.616Z,57.60
2018-10-03T10:44:37.154Z,57.00
2018-10-03T10:47:05.911Z,56.40
2018-10-03T10:49:33.417Z,58.30
2018-10-03T10:52:01.006Z,47.50
2018-10-03T10:54:28.903Z,44.10
2018-10-03T10:56:56.434Z,38.80
2018-10-03T10:59:24.018Z,39.30
2018-10-03T11:01:51.774Z,40.10
2018-10-03T11:04:19.608Z,41.00
2018-10-03T11:06:47.242Z,41.70
2018-10-03T11:09:15.195Z,42.20
2018-10-03T11:11:42.761Z,42.90
2018-10-03T11:14:11.158Z,41.80
2018-10-03T11:16:39.133Z,41.00
2018-10-03T11:19:06.998Z,40.60
2018-10-03T11:21:34.602Z,40.30
2018-10-03T11:24:02.594Z,40.60
2018-10-03T11:28:57.754Z,39.10
2018-10-03T11:31:25.501Z,40.00
2018-10-03T11:33:53.278Z,40.30
2018-10-03T11:36:21.304Z,40.50
2018-10-03T11:38:49.467Z,40.90
2018-10-03T11:41:17.075Z,41.40
2018-10-03T11:43:44.778Z,42.10
2018-10-03T11:46:12.541Z,42.40
2018-10-03T11:48:40.609Z,43.20
2018-10-03T11:51:08.338Z,42.90
2018-10-03T11:53:35.873Z,43.20
2018-10-03T11:56:05.041Z,43.50
2018-10-03T11:58:32.549Z,43.70
2018-10-03T12:01:00.118Z,44.00
2018-10-03T12:03:28.397Z,45.00
2018-10-03T12:05:56.787Z,44.60
2018-10-03T12:08:24.313Z,44.60
2018-10-03T12:10:52.012Z,44.60
2018-10-03T12:13:19.514Z,44.30
2018-10-03T12:15:47.300Z,44.20
2018-10-03T12:18:14.861Z,44.30
2018-10-03T12:20:42.363Z,44.30
2018-10-03T12:23:09.966Z,44.60
2018-10-03T12:25:37.570Z,44.60
2018-10-03T12:28:05.779Z,44.50
2018-10-03T12:30:33.398Z,44.40
2018-10-03T12:33:01.434Z,44.20
2018-10-03T12:35:35.753Z,44.00
2018-10-03T12:38:03.790Z,44.00
2018-10-03T12:40:31.839Z,44.10
2018-10-03T12:42:59.477Z,44.00
2018-10-03T12:45:28.242Z,44.10
2018-10-03T12:47:56.409Z,44.00
2018-10-03T12:50:24.130Z,44.10
2018-10-03T12:52:51.682Z,44.10
2018-10-03T12:55:19.750Z,44.30
2018-10-03T12:57:47.375Z,44.70
2018-10-03T13:00:15.100Z,45.20
2018-10-03T13:02:43.003Z,45.60
2018-10-03T13:05:10.549Z,46.00
2018-10-03T13:07:38.097Z,46.30
2018-10-03T13:10:05.964Z,46.70
2018-10-03T13:12:33.486Z,46.50
2018-10-03T13:15:01.268Z,46.40
2018-10-03T13:17:29.241Z,46.10
2018-10-03T13:19:56.858Z,45.70
2018-10-03T13:22:24.450Z,45.50
2018-10-03T13:24:53.118Z,45.30
2018-10-03T13:27:20.900Z,45.10
2018-10-03T13:29:48.461Z,45.00
2018-10-03T13:32:16.679Z,44.80
2018-10-03T13:34:44.246Z,45.10
2018-10-03T13:37:11.779Z,44.30
2018-10-03T13:39:39.433Z,44.00
2018-10-03T13:42:07.079Z,43.70
2018-10-03T13:44:35.018Z,43.50
2018-10-03T13:47:02.857Z,43.40
2018-10-03T13:49:30.731Z,43.10
2018-10-03T13:51:58.229Z,43.20
2018-10-03T13:54:26.092Z,42.80
2018-10-03T13:56:53.689Z,42.40
2018-10-03T13:59:21.232Z,42.30
2018-10-03T14:01:49.200Z,42.20
2018-10-03T14:04:16.869Z,41.90
2018-10-03T14:06:44.700Z,41.60
2018-10-03T14:09:12.555Z,41.60
2018-10-03T14:11:40.131Z,41.60
2018-10-03T14:14:07.746Z,41.50
2018-10-03T14:16:36.136Z,41.20
2018-10-03T14:19:03.815Z,41.60
2018-10-03T14:21:31.354Z,41.70
2018-10-03T14:23:59.038Z,41.80
2018-10-03T14:26:26.613Z,41.80
2018-10-03T14:28:54.195Z,41.90
2018-10-03T14:31:22.136Z,41.90
2018-10-03T14:33:49.665Z,41.80
2018-10-03T14:36:17.209Z,41.80
2018-10-03T14:38:45.031Z,41.80
2018-10-03T14:41:12.590Z,41.80
2018-10-03T14:43:40.471Z,42.10
2018-10-03T14:46:08.128Z,42.50
2018-10-03T14:48:35.706Z,42.80
2018-10-03T14:51:03.456Z,42.90
2018-10-03T14:53:31.122Z,42.80
2018-10-03T14:55:58.773Z,42.90
2018-10-03T14:58:26.713Z,42.90
2018-10-03T15:00:54.317Z,43.00
2018-10-03T15:03:22.107Z,43.10
2018-10-03T15:05:49.706Z,43.10
2018-10-03T15:08:18.231Z,43.20
2018-10-03T15:10:46.267Z,43.30
2018-10-03T15:13:14.346Z,43.50
2018-10-03T15:15:42.392Z,43.60
2018-10-03T15:18:10.449Z,43.80
2018-10-03T15:20:38.478Z,43.90
2018-10-03T15:23:06.090Z,43.90
2018-10-03T15:25:34.053Z,44.00
2018-10-03T15:28:01.598Z,44.00
2018-10-03T15:30:29.226Z,44.00
2018-10-03T15:35:24.733Z,45.50
2018-10-03T15:37:52.442Z,43.90
2018-10-03T15:40:21.069Z,44.00
2018-10-03T15:42:49.697Z,44.00
2018-10-03T15:45:17.670Z,44.10
2018-10-03T15:47:46.203Z,44.20
2018-10-03T15:50:13.777Z,44.20
2018-10-03T15:52:42.425Z,44.30
2018-10-03T15:55:10.240Z,44.20
2018-10-03T15:57:37.855Z,44.50
2018-10-03T16:00:05.805Z,44.70
2018-10-03T16:02:33.425Z,44.80
2018-10-03T16:05:01.083Z,45.00
2018-10-03T16:07:28.701Z,45.10
2018-10-03T16:09:57.339Z,45.20
2018-10-03T16:12:24.950Z,45.40
2018-10-03T16:14:52.611Z,45.50
2018-10-03T16:17:20.645Z,45.60
2018-10-03T16:19:48.282Z,45.80
2018-10-03T16:22:16.362Z,46.20
2018-10-03T16:24:43.938Z,46.70
2018-10-03T16:29:39.294Z,58.40
2018-10-03T16:34:34.489Z,45.90
2018-10-03T16:37:02.438Z,46.40
2018-10-03T16:39:30.017Z,46.60
2018-10-03T16:41:57.646Z,46.90
2018-10-03T16:44:25.261Z,46.80
2018-10-03T16:46:52.895Z,46.90
2018-10-03T16:49:20.818Z,47.10
2018-10-03T16:51:48.806Z,47.20
2018-10-03T16:54:17.238Z,47.30
2018-10-03T16:56:45.106Z,47.60
2018-10-03T16:59:12.751Z,47.80
2018-10-03T17:01:40.575Z,48.00
2018-10-03T17:04:08.572Z,48.10
2018-10-03T17:06:36.250Z,48.30
2018-10-03T17:09:05.457Z,48.50
2018-10-03T17:11:33.180Z,48.60
2018-10-03T17:14:27.622Z,48.80
2018-10-03T17:16:55.679Z,49.00
2018-10-03T17:19:24.031Z,49.10
2018-10-03T17:21:53.530Z,49.10
2018-10-03T17:24:22.618Z,49.30
2018-10-03T17:26:50.266Z,49.20
2018-10-03T17:29:18.082Z,49.30
2018-10-03T17:31:46.190Z,49.30
2018-10-03T17:34:14.588Z,49.20
2018-10-03T17:36:43.969Z,49.20
2018-10-03T17:39:11.506Z,49.20
2018-10-03T17:41:39.451Z,49.20
2018-10-03T17:44:07.149Z,49.30
2018-10-03T17:46:35.009Z,49.30
2018-10-03T17:49:02.656Z,49.40
2018-10-03T17:51:30.434Z,49.50
2018-10-03T17:53:58.417Z,50.10
2018-10-03T17:56:26.078Z,49.60
2018-10-03T17:58:53.798Z,49.70
2018-10-03T18:01:22.173Z,49.70
2018-10-03T18:03:49.715Z,49.90
2018-10-03T18:06:17.647Z,50.00
2018-10-03T18:08:45.167Z,50.10
2018-10-03T18:11:12.891Z,50.10
2018-10-03T18:13:40.794Z,50.20
2018-10-03T18:16:08.405Z,50.20
2018-10-03T18:18:36.398Z,50.20
2018-10-03T18:21:04.353Z,50.20
2018-10-03T18:23:32.175Z,50.70
2018-10-03T18:25:59.944Z,50.10
2018-10-03T18:28:28.085Z,50.10
2018-10-03T18:30:55.652Z,50.10
2018-10-03T18:33:24.398Z,50.10
2018-10-03T18:35:52.205Z,50.10
2018-10-03T18:38:19.934Z,50.00
2018-10-03T18:40:47.531Z,50.10
2018-10-03T18:43:15.267Z,50.10
2018-10-03T18:45:42.940Z,50.00
2018-10-03T18:48:10.647Z,50.60
2018-10-03T18:50:38.514Z,50.00
2018-10-03T18:53:06.165Z,50.00
2018-10-03T18:55:34.180Z,50.00
2018-10-03T18:58:02.585Z,50.00
2018-10-03T19:00:30.219Z,50.00
2018-10-03T19:02:58.062Z,50.00
2018-10-03T19:05:25.836Z,50.40
2018-10-03T19:07:53.506Z,49.90
2018-10-03T19:10:21.475Z,49.90
2018-10-03T19:12:49.323Z,49.90
2018-10-03T19:15:16.846Z,49.80
2018-10-03T19:17:44.763Z,49.80
2018-10-03T19:20:12.560Z,49.80
2018-10-03T19:22:41.058Z,49.80
2018-10-03T19:25:09.386Z,49.90
2018-10-03T19:27:37.415Z,49.90
2018-10-03T19:30:05.412Z,50.00
2018-10-03T19:32:33.038Z,50.20
2018-10-03T19:35:01.089Z,50.20
2018-10-03T19:37:28.889Z,50.30
2018-10-03T19:39:56.464Z,50.30
2018-10-03T19:42:24.290Z,50.40
2018-10-03T19:44:52.154Z,50.50
2018-10-03T19:47:19.710Z,50.60
2018-10-03T19:49:47.719Z,50.60
2018-10-03T19:52:16.093Z,50.60
2018-10-03T19:54:43.688Z,50.60
2018-10-03T19:57:12.097Z,50.60
2018-10-03T19:59:39.615Z,50.60
2018-10-03T20:02:07.607Z,50.60
2018-10-03T20:04:35.223Z,50.60
2018-10-03T20:07:03.285Z,50.60
2018-10-03T20:09:30.949Z,50.70
2018-10-03T20:11:58.768Z,50.80
2018-10-03T20:14:26.394Z,51.40
2018-10-03T20:16:54.390Z,50.80
2018-10-03T20:19:21.941Z,50.90
2018-10-03T20:21:49.742Z,50.80
2018-10-03T20:24:17.982Z,50.90
2018-10-03T20:26:45.985Z,50.80
2018-10-03T20:29:13.590Z,50.80
2018-10-03T20:31:41.166Z,50.80
2018-10-03T20:34:09.213Z,50.80
2018-10-03T20:36:36.773Z,50.80
2018-10-03T20:39:06.650Z,50.60
2018-10-03T20:41:34.343Z,50.60
2018-10-03T20:44:01.977Z,50.40
2018-10-03T20:46:29.766Z,50.50
2018-10-03T20:48:57.900Z,50.90
2018-10-03T20:51:25.641Z,50.30
2018-10-03T20:53:53.575Z,50.30
2018-10-03T20:56:21.634Z,50.30
2018-10-03T20:58:53.097Z,50.30
2018-10-03T21:01:21.731Z,50.30
2018-10-03T21:03:49.513Z,50.40
2018-10-03T21:06:17.040Z,50.40
2018-10-03T21:08:45.095Z,50.50
2018-10-03T21:11:12.995Z,50.50
2018-10-03T21:13:40.778Z,50.50
2018-10-03T21:16:08.390Z,50.50
2018-10-03T21:18:36.590Z,50.50
2018-10-03T21:21:04.374Z,50.60
2018-10-03T21:23:32.772Z,50.50
2018-10-03T21:26:01.025Z,50.60
2018-10-03T21:28:29.162Z,50.60
2018-10-03T21:30:56.758Z,50.60
2018-10-03T21:33:24.402Z,50.60
2018-10-03T21:35:52.368Z,51.00
2018-10-03T21:38:19.994Z,50.60
2018-10-03T21:40:47.534Z,50.80
2018-10-03T21:43:15.262Z,50.80
2018-10-03T21:45:42.814Z,51.00
2018-10-03T21:48:10.698Z,50.80
